Time;durP1;ratioP1;P1;durP2;ratioP2;P2;SDS_P1;SDS_P2;PMS_P1;PMS_P2;Temp;Humidity;BMP_temperature;BMP_pressure;BME280_temperature;BME280_humidity;BME280_pressure;Samples;Min_cycle;Max_cycle;Signal;HPM_P1;HPM_P2
2023/01/14 00:00:22;;;;;;;38.75;4.63;;;12.20;99.90;;;;;;5073722;28;20017;-61
2023/01/14 00:02:47;;;;;;;25.55;3.85;;;12.30;99.90;;;;;;5073795;28;20116;-61
2023/01/14 00:05:13;;;;;;;15.88;3.55;;;12.30;99.90;;;;;;5073552;28;20077;-61
2023/01/14 00:07:39;;;;;;;28.02;4.13;;;12.30;99.90;;;;;;5073693;28;20036;-62
2023/01/14 00:10:05;;;;;;;20.17;3.42;;;12.30;99.90;;;;;;5073380;28;20036;-61
2023/01/14 00:12:31;;;;;;;30.13;4.25;;;12.30;99.90;;;;;;5073614;28;20028;-61
2023/01/14 00:14:57;;;;;;;30.75;3.85;;;12.30;99.90;;;;;;5073283;28;20037;-62
2023/01/14 00:17:23;;;;;;;28.92;4.25;;;12.30;99.90;;;;;;5073427;28;20035;-62
2023/01/14 00:19:49;;;;;;;28.52;3.15;;;12.30;99.90;;;;;;5073094;28;20035;-60
2023/01/14 00:22:15;;;;;;;21.08;2.97;;;12.40;99.90;;;;;;5073101;28;20055;-61
2023/01/14 00:24:40;;;;;;;27.27;4.50;;;12.40;99.90;;;;;;5073347;28;20040;-61
2023/01/14 00:27:06;;;;;;;29.27;3.63;;;12.40;99.90;;;;;;5073299;28;20072;-62
2023/01/14 00:29:33;;;;;;;28.50;3.88;;;12.40;99.90;;;;;;5073237;28;20036;-62
2023/01/14 00:32:03;;;;;;;23.30;3.28;;;12.40;99.90;;;;;;5073246;28;20024;-62
2023/01/14 00:34:30;;;;;;;28.48;5.07;;;12.40;99.90;;;;;;5073083;28;20020;-62
2023/01/14 00:36:56;;;;;;;30.83;3.38;;;12.40;99.90;;;;;;5073029;28;20036;-62
2023/01/14 00:39:22;;;;;;;32.00;3.58;;;12.40;99.90;;;;;;5072851;28;20497;-61
2023/01/14 00:41:48;;;;;;;27.65;4.68;;;12.40;99.90;;;;;;5072828;28;20063;-62
2023/01/14 00:44:14;;;;;;;29.35;3.20;;;12.40;99.90;;;;;;5072799;28;20060;-61
2023/01/14 00:46:41;;;;;;;23.42;3.05;;;12.40;99.90;;;;;;5072848;28;20063;-62
2023/01/14 00:49:13;;;;;;;16.10;2.38;;;12.40;99.90;;;;;;5072597;28;20021;-62
2023/01/14 00:51:39;;;;;;;25.08;2.97;;;12.40;99.90;;;;;;5072429;28;20024;-62
2023/01/14 00:54:05;;;;;;;21.55;4.38;;;12.40;99.90;;;;;;5072935;28;20504;-62
2023/01/14 00:56:31;;;;;;;20.13;3.67;;;12.40;99.90;;;;;;5072667;28;20436;-61
2023/01/14 00:58:57;;;;;;;24.48;2.47;;;12.40;99.90;;;;;;5072688;28;20028;-62
2023/01/14 01:01:23;;;;;;;17.73;3.45;;;12.40;99.90;;;;;;5072659;28;20021;-62
2023/01/14 01:03:51;;;;;;;21.70;2.78;;;12.40;99.90;;;;;;5072555;28;20586;-61
2023/01/14 01:06:19;;;;;;;19.77;3.13;;;12.30;99.90;;;;;;5072752;28;20044;-62
2023/01/14 01:08:45;;;;;;;19.80;3.15;;;12.30;99.90;;;;;;5072660;28;20385;-61
2023/01/14 01:11:12;;;;;;;25.90;3.28;;;12.30;99.90;;;;;;5072669;28;20025;-61
2023/01/14 01:13:38;;;;;;;23.27;3.83;;;12.30;99.90;;;;;;5072787;28;20020;-62
2023/01/14 01:16:12;;;;;;;29.15;3.75;;;12.30;99.90;;;;;;5073111;28;20416;-62
2023/01/14 01:18:38;;;;;;;27.77;4.30;;;12.30;99.90;;;;;;5072204;28;20405;-62
2023/01/14 01:21:15;;;;;;;19.95;2.83;;;12.30;99.90;;;;;;5072020;28;20032;-61
2023/01/14 01:23:42;;;;;;;28.08;3.67;;;12.30;99.90;;;;;;5072159;28;20389;-62
2023/01/14 01:26:18;;;;;;;26.83;3.00;;;12.30;99.90;;;;;;5071920;28;20044;-62
2023/01/14 01:28:47;;;;;;;30.55;3.92;;;12.30;99.90;;;;;;5072246;28;20052;-62
2023/01/14 01:31:13;;;;;;;25.75;4.85;;;12.30;99.90;;;;;;5072257;28;20047;-62
2023/01/14 01:33:39;;;;;;;28.77;3.40;;;12.30;99.90;;;;;;5070288;28;20477;-62
2023/01/14 01:36:11;;;;;;;39.22;5.18;;;12.40;99.90;;;;;;5071740;28;20477;-63
2023/01/14 01:38:36;;;;;;;22.23;3.53;;;12.30;99.90;;;;;;5071981;28;20102;-64
2023/01/14 01:41:02;;;;;;;32.25;5.45;;;12.30;99.90;;;;;;5070478;28;20067;-66
2023/01/14 01:43:30;;;;;;;35.17;4.32;;;12.30;99.90;;;;;;5070286;28;20035;-67
2023/01/14 01:45:57;;;;;;;26.17;3.47;;;12.10;99.90;;;;;;5071450;28;20035;-69
2023/01/14 01:48:35;;;;;;;29.85;4.20;;;12.10;99.90;;;;;;5071529;28;20489;-70
2023/01/14 01:51:35;;;;;;;28.85;3.30;;;12.10;99.90;;;;;;5071806;28;20115;-72
2023/01/14 01:54:02;;;;;;;17.60;2.80;;;12.00;99.90;;;;;;5028296;28;20037;-72
2023/01/14 01:56:33;;;;;;;18.35;2.70;;;12.00;99.90;;;;;;5071278;28;20481;-72
2023/01/14 01:59:04;;;;;;;27.50;2.85;;;11.90;99.90;;;;;;5071678;28;20021;-71
2023/01/14 02:01:30;;;;;;;20.02;3.00;;;11.90;99.90;;;;;;5069261;28;20029;-72
2023/01/14 02:03:56;;;;;;;29.48;3.67;;;11.90;99.90;;;;;;5070031;28;20559;-72
2023/01/14 02:06:23;;;;;;;28.55;4.35;;;12.00;99.90;;;;;;5071410;28;20665;-73
2023/01/14 02:08:51;;;;;;;35.95;3.53;;;12.00;99.90;;;;;;5071110;28;20024;-73
2023/01/14 02:11:23;;;;;;;27.15;3.70;;;12.00;99.90;;;;;;5071275;28;20128;-73
2023/01/14 02:14:03;;;;;;;21.85;2.58;;;12.10;99.90;;;;;;5071212;28;20036;-72
2023/01/14 02:17:06;;;;;;;0.43;0.43;;;11.80;99.90;;;;;;5071065;28;20473;-73
2023/01/14 02:19:53;;;;;;;0.15;0.15;;;11.80;1.00;;;;;;5071404;28;20401;-73
2023/01/14 02:22:46;;;;;;;0.20;0.20;;;11.80;81.90;;;;;;5069961;28;20634;-73
2023/01/14 02:25:50;;;;;;;22.33;2.33;;;11.90;89.10;;;;;;5071255;28;20100;-73
2023/01/14 02:28:53;;;;;;;16.88;2.00;;;11.80;99.60;;;;;;5071448;28;20044;-74
2023/01/14 02:31:25;;;;;;;14.77;2.65;;;12.10;99.90;;;;;;5071139;28;20013;-73
2023/01/14 02:34:16;;;;;;;16.00;2.65;;;12.00;99.90;;;;;;5070940;28;20021;-73
2023/01/14 02:36:49;;;;;;;5.47;2.05;;;11.90;99.90;;;;;;5060184;28;20075;-73
2023/01/14 02:39:27;;;;;;;12.20;2.38;;;11.90;99.90;;;;;;5071021;28;20021;-73
2023/01/14 02:45:05;;;;;;;28.73;2.08;;;11.80;99.90;;;;;;5071232;28;20075;-74
2023/01/14 02:47:32;;;;;;;20.10;2.30;;;11.90;99.90;;;;;;5071000;28;20380;-74
2023/01/14 02:50:00;;;;;;;17.55;3.00;;;11.80;64.60;;;;;;5071028;28;20049;-73
2023/01/14 02:52:26;;;;;;;16.23;2.67;;;11.90;99.90;;;;;;5071040;28;20067;-74
2023/01/14 02:55:02;;;;;;;22.02;2.20;;;11.90;1.00;;;;;;5070808;28;20052;-74
2023/01/14 02:57:34;;;;;;;16.40;2.35;;;11.90;1.00;;;;;;5070984;28;20480;-73
2023/01/14 03:00:09;;;;;;;26.63;2.72;;;12.00;99.90;;;;;;5070848;28;20554;-74
2023/01/14 03:02:54;;;;;;;0.10;0.10;;;11.90;99.90;;;;;;5071176;28;20056;-74
2023/01/14 03:05:58;;;;;;;0.35;0.35;;;12.00;99.90;;;;;;5074263;28;20018;-75
2023/01/14 03:08:35;;;;;;;0.20;0.20;;;11.90;1.00;;;;;;5068539;28;20056;-75
2023/01/14 03:11:05;;;;;;;0.20;0.20;;;11.90;99.90;;;;;;5070863;28;20017;-77
2023/01/14 03:13:39;;;;;;;0.17;0.17;;;11.90;99.90;;;;;;5072164;28;20055;-77
2023/01/14 03:16:15;;;;;;;0.30;0.30;;;11.90;99.90;;;;;;5074711;28;20028;-80
2023/01/14 03:19:08;;;;;;;0.20;0.20;;;12.00;99.90;;;;;;5074477;28;20025;-72
2023/01/14 03:21:41;;;;;;;0.55;0.55;;;12.00;99.90;;;;;;5074609;28;20020;-69
2023/01/14 03:24:29;;;;;;;0.20;0.20;;;12.00;99.90;;;;;;5074358;28;20070;-70
2023/01/14 03:26:59;;;;;;;0.20;0.20;;;12.60;99.90;;;;;;5074224;28;20032;-70
2023/01/14 03:29:39;;;;;;;0.20;0.20;;;12.70;99.90;;;;;;5074504;28;20473;-71
2023/01/14 03:32:14;;;;;;;0.22;0.22;;;12.70;99.90;;;;;;5074298;28;20028;-72
2023/01/14 03:34:48;;;;;;;0.45;0.45;;;12.80;99.90;;;;;;5074189;28;20021;-73
2023/01/14 03:37:17;;;;;;;1.92;1.38;;;12.90;99.90;;;;;;5074092;28;20627;-72
2023/01/14 03:39:45;;;;;;;0.13;0.13;;;13.00;99.90;;;;;;5074221;28;20044;-72
2023/01/14 03:42:19;;;;;;;0.20;0.20;;;12.90;99.90;;;;;;5074146;28;20052;-71
2023/01/14 03:45:10;;;;;;;0.10;0.10;;;13.00;99.90;;;;;;5073986;28;20032;-72
2023/01/14 03:47:37;;;;;;;0.10;0.10;;;13.00;99.90;;;;;;5074001;28;20102;-71
2023/01/14 03:50:10;;;;;;;0.90;0.85;;;13.00;99.90;;;;;;5073872;28;20035;-71
2023/01/14 03:52:52;;;;;;;0.20;0.20;;;13.10;99.90;;;;;;5073897;28;20037;-69
2023/01/14 03:55:21;;;;;;;;;;;13.10;99.90;;;;;;5074193;28;20020;-74
2023/01/14 03:58:05;;;;;;;0.10;0.10;;;13.30;99.90;;;;;;5073936;28;19974;-77
2023/01/14 04:00:36;;;;;;;0.20;0.20;;;13.40;99.90;;;;;;5073791;28;20024;-73
2023/01/14 04:03:05;;;;;;;0.20;0.20;;;13.50;99.90;;;;;;5073745;28;20020;-72
2023/01/14 04:05:32;;;;;;;0.10;0.10;;;14.30;99.90;;;;;;5073523;28;20052;-71
2023/01/14 04:07:59;;;;;;;0.10;0.10;;;14.40;99.90;;;;;;5074040;28;20021;-73
2023/01/14 04:10:26;;;;;;;0.20;0.20;;;14.50;99.90;;;;;;5073892;28;20033;-73
2023/01/14 04:15:35;;;;;;;0.20;0.20;;;18.40;99.90;;;;;;5073518;28;20144;-73
2023/01/14 04:18:02;;;;;;;0.10;0.10;;;19.10;99.90;;;;;;5071305;28;20111;-73
2023/01/14 04:20:27;;;;;;;0.10;0.10;;;19.30;99.90;;;;;;5071973;28;20024;-73
2023/01/14 04:22:53;;;;;;;0.20;0.20;;;19.40;99.90;;;;;;5073351;28;20485;-73
2023/01/14 04:25:19;;;;;;;1.00;1.00;;;19.70;99.90;;;;;;5072277;28;20033;-75
2023/01/14 04:27:44;;;;;;;0.10;0.10;;;19.60;99.90;;;;;;5068265;28;20037;-76
2023/01/14 04:30:11;;;;;;;0.10;0.10;;;20.00;99.90;;;;;;5053500;28;20497;-78
2023/01/14 04:32:36;;;;;;;0.10;0.10;;;20.10;99.90;;;;;;5072677;28;20115;-82
2023/01/14 04:35:03;;;;;;;0.10;0.10;;;20.20;99.90;;;;;;5080171;28;20091;-82
2023/01/14 04:37:29;;;;;;;0.10;0.10;;;20.30;99.90;;;;;;5077779;28;20462;-77
2023/01/14 04:39:55;;;;;;;0.10;0.10;;;20.30;99.90;;;;;;5075251;28;20028;-75
2023/01/14 04:42:27;;;;;;;0.10;0.10;;;20.40;99.90;;;;;;5076292;28;20056;-74
2023/01/14 04:44:59;;;;;;;0.10;0.10;;;20.40;99.90;;;;;;5077840;28;20421;-72
2023/01/14 04:47:25;;;;;;;0.10;0.10;;;20.40;99.90;;;;;;5076567;28;20033;-73
2023/01/14 04:49:51;;;;;;;0.10;0.10;;;20.70;99.90;;;;;;5076477;28;20083;-75
2023/01/14 04:52:17;;;;;;;0.10;0.10;;;20.70;99.90;;;;;;5072765;28;20066;-75
2023/01/14 04:54:43;;;;;;;0.35;0.32;;;20.90;99.90;;;;;;5073191;28;20493;-78
2023/01/14 04:57:09;;;;;;;0.10;0.10;;;21.00;99.90;;;;;;5072806;28;20059;-76
2023/01/14 04:59:35;;;;;;;0.10;0.10;;;21.30;99.90;;;;;;5072679;28;20029;-75
2023/01/14 05:02:00;;;;;;;0.10;0.10;;;21.30;99.90;;;;;;5056366;28;20033;-74
2023/01/14 05:04:26;;;;;;;0.10;0.10;;;21.30;99.90;;;;;;5052735;28;20079;-77
2023/01/14 05:06:53;;;;;;;0.15;0.15;;;21.30;99.90;;;;;;5051953;28;20025;-76
2023/01/14 05:09:19;;;;;;;0.10;0.10;;;21.30;99.90;;;;;;5052953;28;20047;-75
2023/01/14 05:11:45;;;;;;;0.10;0.10;;;21.40;99.90;;;;;;5052347;28;20200;-75
2023/01/14 05:14:11;;;;;;;0.30;0.30;;;21.40;99.90;;;;;;5052431;28;20588;-75
2023/01/14 05:16:36;;;;;;;0.10;0.10;;;21.40;99.90;;;;;;5052275;28;20031;-73
2023/01/14 05:19:03;;;;;;;0.20;0.20;;;21.30;99.90;;;;;;5052459;28;20381;-75
2023/01/14 05:21:29;;;;;;;0.15;0.15;;;21.30;99.90;;;;;;5052267;28;20021;-76
2023/01/14 05:23:54;;;;;;;0.20;0.20;;;21.30;99.90;;;;;;5052297;28;20028;-77
2023/01/14 05:26:20;;;;;;;0.10;0.10;;;21.30;99.90;;;;;;5052041;28;20029;-74
2023/01/14 05:28:46;;;;;;;0.38;0.38;;;21.30;99.90;;;;;;5052189;28;20504;-73
2023/01/14 05:31:11;;;;;;;0.20;0.20;;;21.20;99.90;;;;;;5052109;28;20025;-77
2023/01/14 05:33:37;;;;;;;3.63;3.00;;;21.30;99.90;;;;;;5051784;28;20025;-78
2023/01/14 05:36:03;;;;;;;0.10;0.10;;;21.30;99.90;;;;;;5051594;28;20025;-79
2023/01/14 05:38:29;;;;;;;0.20;0.20;;;21.30;99.90;;;;;;5050434;28;20029;-75
2023/01/14 05:40:55;;;;;;;0.10;0.10;;;21.30;99.90;;;;;;5051797;28;20048;-75
2023/01/14 05:46:13;;;;;;;0.10;0.10;;;21.40;99.90;;;;;;5052264;28;20036;-75
2023/01/14 05:48:39;;;;;;;0.40;0.40;;;21.30;99.90;;;;;;5052286;28;20427;-74
2023/01/14 05:51:05;;;;;;;1.05;1.05;;;21.30;99.90;;;;;;5051868;28;20021;-75
2023/01/14 05:53:32;;;;;;;0.10;0.10;;;21.30;99.90;;;;;;5051884;28;20051;-75
2023/01/14 05:55:58;;;;;;;11.40;4.50;;;20.80;99.90;;;;;;5050325;28;20032;-75
2023/01/14 05:58:25;;;;;;;0.10;0.10;;;21.00;99.90;;;;;;5050220;28;20032;-76
2023/01/14 06:06:25;;;;;;;0.10;0.10;;;21.00;99.90;;;;;;5051386;28;20043;-75
2023/01/14 06:08:57;;;;;;;0.60;0.60;;;21.00;99.90;;;;;;5051488;28;20159;-75
2023/01/14 06:11:27;;;;;;;12.45;4.07;;;20.90;99.90;;;;;;5051556;28;20055;-77
2023/01/14 06:13:57;;;;;;;0.20;0.20;;;21.10;99.90;;;;;;5049926;28;20087;-73
2023/01/14 06:16:26;;;;;;;0.10;0.10;;;20.70;99.90;;;;;;5066825;28;20059;-73
2023/01/14 06:18:52;;;;;;;0.20;0.20;;;20.90;99.90;;;;;;5051135;28;20025;-73
2023/01/14 06:21:26;;;;;;;0.20;0.20;;;20.90;99.90;;;;;;5051290;28;20040;-72
2023/01/14 06:23:52;;;;;;;0.20;0.20;;;20.90;99.90;;;;;;5051254;28;20021;-73
2023/01/14 06:26:21;;;;;;;0.20;0.20;;;20.80;99.90;;;;;;5051136;28;20061;-74
2023/01/14 06:28:46;;;;;;;0.17;0.17;;;20.90;99.90;;;;;;5051249;28;20537;-74
2023/01/14 06:31:18;;;;;;;0.17;0.17;;;20.80;99.90;;;;;;5051154;28;20102;-74
2023/01/14 06:33:45;;;;;;;0.40;0.40;;;20.80;99.90;;;;;;5051007;28;20064;-75
2023/01/14 06:36:12;;;;;;;0.10;0.10;;;20.70;99.90;;;;;;5051465;28;20036;-74
2023/01/14 06:38:39;;;;;;;0.20;0.20;;;20.80;99.90;;;;;;5051164;28;20106;-73
2023/01/14 06:41:06;;;;;;;0.73;0.65;;;20.70;99.90;;;;;;5051026;28;20027;-72
2023/01/14 06:43:33;;;;;;;0.10;0.10;;;20.80;99.90;;;;;;5051322;28;20025;-73
2023/01/14 06:45:59;;;;;;;0.43;0.40;;;20.80;99.90;;;;;;5050868;28;20032;-73
2023/01/14 06:48:26;;;;;;;2.10;2.00;;;20.80;99.90;;;;;;5052678;28;20025;-74
2023/01/14 06:50:52;;;;;;;0.20;0.20;;;20.90;99.90;;;;;;5055209;28;20082;-75
2023/01/14 06:53:19;;;;;;;0.15;0.15;;;21.00;99.90;;;;;;5055092;28;20039;-74
2023/01/14 06:55:45;;;;;;;0.10;0.10;;;21.00;99.90;;;;;;5055274;28;20029;-74
2023/01/14 06:58:11;;;;;;;0.20;0.20;;;20.20;99.90;;;;;;5055127;28;20397;-71
2023/01/14 07:00:37;;;;;;;0.17;0.17;;;20.50;99.90;;;;;;5054931;28;20017;-70
2023/01/14 07:03:04;;;;;;;0.17;0.17;;;20.50;99.90;;;;;;5054991;28;20078;-72
2023/01/14 07:05:29;;;;;;;0.28;0.28;;;20.50;99.90;;;;;;5054749;28;20407;-72
2023/01/14 07:07:55;;;;;;;1.05;1.02;;;20.50;99.90;;;;;;5054880;28;20041;-74
2023/01/14 07:10:21;;;;;;;0.20;0.20;;;20.60;99.90;;;;;;5054963;28;20032;-73
2023/01/14 07:12:48;;;;;;;0.20;0.20;;;20.60;99.90;;;;;;5055921;28;20441;-73
2023/01/14 07:15:16;;;;;;;1.65;1.65;;;20.80;99.90;;;;;;5055020;28;20049;-77
2023/01/14 07:17:43;;;;;;;0.13;0.13;;;20.70;99.90;;;;;;5054662;28;20029;-76
2023/01/14 07:20:10;;;;;;;2.30;1.27;;;20.60;99.90;;;;;;5054534;28;20032;-78
2023/01/14 07:22:36;;;;;;;0.10;0.10;;;20.50;99.90;;;;;;5053319;28;20037;-77
2023/01/14 07:25:02;;;;;;;0.30;0.30;;;20.40;99.90;;;;;;5054571;28;20028;-77
2023/01/14 07:27:28;;;;;;;0.25;0.25;;;20.50;99.90;;;;;;5072404;28;20463;-81
2023/01/14 07:29:54;;;;;;;0.20;0.20;;;20.50;99.90;;;;;;5074089;28;20025;-77
2023/01/14 07:32:20;;;;;;;0.13;0.13;;;20.50;99.90;;;;;;5074395;28;20029;-77
2023/01/14 07:34:45;;;;;;;0.10;0.10;;;20.50;99.90;;;;;;5074380;28;20070;-76
2023/01/14 07:37:11;;;;;;;0.20;0.20;;;20.60;99.90;;;;;;5074246;28;20040;-76
2023/01/14 07:39:37;;;;;;;0.20;0.20;;;20.60;99.90;;;;;;5074390;28;20059;-76
2023/01/14 07:42:03;;;;;;;0.17;0.17;;;20.70;99.90;;;;;;5074175;28;20034;-75
2023/01/14 07:44:28;;;;;;;0.65;0.65;;;20.70;99.90;;;;;;5073743;28;20025;-74
2023/01/14 07:46:55;;;;;;;0.10;0.10;;;20.70;99.90;;;;;;5074021;28;20531;-76
2023/01/14 07:49:22;;;;;;;0.75;0.75;;;20.70;99.90;;;;;;5074098;28;20504;-75
2023/01/14 07:51:48;;;;;;;0.63;0.55;;;20.70;99.90;;;;;;5074221;28;20020;-75
2023/01/14 07:54:14;;;;;;;0.10;0.10;;;20.80;99.90;;;;;;5073917;28;20493;-76
2023/01/14 07:56:40;;;;;;;0.17;0.17;;;20.80;99.90;;;;;;5073823;28;20041;-77
2023/01/14 07:59:07;;;;;;;0.20;0.20;;;20.90;99.90;;;;;;5072592;28;20033;-75
2023/01/14 08:01:32;;;;;;;0.10;0.10;;;20.80;99.90;;;;;;5073997;28;20067;-75
2023/01/14 08:03:58;;;;;;;0.57;0.57;;;20.80;99.90;;;;;;5070781;28;20235;-75
2023/01/14 08:06:25;;;;;;;0.10;0.10;;;21.00;99.90;;;;;;5053550;28;20103;-75
2023/01/14 08:08:50;;;;;;;0.13;0.13;;;21.20;99.90;;;;;;5052989;28;20104;-76
2023/01/14 08:11:16;;;;;;;1.05;1.05;;;21.30;99.90;;;;;;5060681;28;20029;-76
2023/01/14 08:13:42;;;;;;;0.47;0.47;;;21.60;99.90;;;;;;5073061;28;20028;-77
2023/01/14 08:16:09;;;;;;;0.30;0.30;;;21.90;99.90;;;;;;5068315;28;20542;-76
2023/01/14 08:18:38;;;;;;;17.55;7.22;;;22.10;99.90;;;;;;5072432;28;20029;-77
2023/01/14 08:21:08;;;;;;;0.20;0.20;;;22.50;99.90;;;;;;5071745;28;20445;-75
2023/01/14 08:23:35;;;;;;;0.10;0.10;;;22.90;99.90;;;;;;5064666;28;20111;-75
2023/01/14 08:26:06;;;;;;;1.55;1.45;;;22.80;99.90;;;;;;5072408;28;20044;-74
2023/01/14 08:28:32;;;;;;;0.20;0.20;;;22.80;99.90;;;;;;5053931;28;20035;-74
2023/01/14 08:31:11;;;;;;;0.20;0.20;;;22.80;99.90;;;;;;5059487;28;20021;-75
2023/01/14 08:33:38;;;;;;;0.10;0.10;;;22.90;99.90;;;;;;5069954;28;20028;-74
2023/01/14 08:36:09;;;;;;;0.20;0.20;;;22.90;99.90;;;;;;5070559;28;20079;-77
2023/01/14 08:38:36;;;;;;;0.50;0.50;;;22.80;99.90;;;;;;5071786;28;20481;-77
2023/01/14 08:41:04;;;;;;;0.10;0.10;;;22.80;99.90;;;;;;5072397;28;20472;-77
2023/01/14 08:43:29;;;;;;;0.17;0.17;;;22.70;99.90;;;;;;5072125;28;20254;-82
2023/01/14 08:45:55;;;;;;;0.20;0.20;;;22.70;99.90;;;;;;5071858;28;20587;-81
2023/01/14 08:48:21;;;;;;;0.20;0.20;;;22.70;99.90;;;;;;5061762;28;20025;-81
2023/01/14 08:50:46;;;;;;;0.80;0.32;;;23.60;99.90;;;;;;5067195;28;20075;-79
2023/01/14 08:53:12;;;;;;;0.20;0.20;;;23.60;99.90;;;;;;5072754;28;20024;-78
2023/01/14 08:55:38;;;;;;;0.20;0.20;;;23.60;99.90;;;;;;5068997;28;20107;-79
2023/01/14 08:58:07;;;;;;;0.13;0.13;;;24.00;99.90;;;;;;5052360;28;20064;-78
2023/01/14 09:00:33;;;;;;;0.20;0.20;;;23.90;99.90;;;;;;5066501;28;20024;-78
2023/01/14 09:02:59;;;;;;;0.10;0.10;;;24.10;99.90;;;;;;5055522;28;20056;-81
2023/01/14 09:05:25;;;;;;;0.52;0.52;;;23.90;99.90;;;;;;5067482;28;20426;-76
2023/01/14 09:19:09;;;;;;;6.13;1.75;;;23.70;99.90;;;;;;5072786;28;20035;-81
2023/01/14 09:21:34;;;;;;;0.43;0.43;;;23.60;99.90;;;;;;5066535;28;20020;-81
2023/01/14 09:24:00;;;;;;;0.20;0.20;;;23.60;99.90;;;;;;5071947;28;20445;-79
2023/01/14 09:26:26;;;;;;;0.13;0.13;;;23.50;99.90;;;;;;5054288;28;20025;-75
2023/01/14 09:28:51;;;;;;;0.20;0.20;;;23.40;99.90;;;;;;5059575;28;20029;-75
2023/01/14 09:31:17;;;;;;;0.20;0.20;;;23.30;99.90;;;;;;5072166;28;20503;-72
2023/01/14 09:33:43;;;;;;;1.65;0.52;;;23.40;99.90;;;;;;5072002;28;20046;-69
2023/01/14 09:36:08;;;;;;;0.30;0.30;;;23.30;99.90;;;;;;5072035;28;20056;-68
2023/01/14 09:38:34;;;;;;;0.20;0.20;;;23.20;99.90;;;;;;5071843;28;20029;-67
2023/01/14 09:41:00;;;;;;;0.10;0.10;;;23.20;99.90;;;;;;5053626;28;20047;-69
2023/01/14 09:43:29;;;;;;;0.20;0.20;;;23.10;99.90;;;;;;5052003;28;20064;-69
2023/01/14 09:46:01;;;;;;;0.20;0.20;;;23.10;99.90;;;;;;5051881;28;20021;-68
2023/01/14 09:48:30;;;;;;;0.10;0.10;;;23.20;99.90;;;;;;5051849;28;20060;-68
2023/01/14 09:51:24;;;;;;;0.40;0.40;;;23.20;99.90;;;;;;5051272;28;20052;-69
2023/01/14 09:54:13;;;;;;;0.40;0.40;;;23.10;99.90;;;;;;5051612;28;20022;-69
2023/01/14 09:56:48;;;;;;;0.25;0.25;;;23.00;99.90;;;;;;5064673;28;20037;-71
2023/01/14 09:59:14;;;;;;;1.05;0.95;;;23.10;99.90;;;;;;5051988;28;20030;-70
2023/01/14 10:02:32;;;;;;;9.00;1.00;;;23.10;99.90;;;;;;5056298;28;20562;-71
2023/01/14 10:05:28;;;;;;;0.43;0.43;;;23.10;99.90;;;;;;4989438;28;20117;-73
2023/01/14 10:07:57;;;;;;;0.20;0.20;;;23.00;99.90;;;;;;5050186;28;20498;-73
2023/01/14 10:10:35;;;;;;;0.20;0.20;;;23.10;99.90;;;;;;5050407;28;20028;-73
2023/01/14 10:13:25;;;;;;;4.30;3.45;;;22.90;99.90;;;;;;5066088;28;20485;-71
2023/01/14 10:16:01;;;;;;;0.17;0.17;;;22.90;99.90;;;;;;5070418;28;20040;-78
2023/01/14 10:19:04;;;;;;;3.03;2.05;;;22.90;99.90;;;;;;5071488;28;20054;-73
2023/01/14 10:21:59;;;;;;;2.95;2.75;;;22.90;99.90;;;;;;5053627;28;20029;-75
2023/01/14 10:24:24;;;;;;;0.20;0.20;;;22.90;99.90;;;;;;5049507;28;20568;-69
2023/01/14 10:26:51;;;;;;;0.10;0.10;;;22.90;99.90;;;;;;5052201;28;20063;-70
2023/01/14 10:29:20;;;;;;;1.05;1.05;;;22.90;99.90;;;;;;5058276;28;20108;-69
2023/01/14 10:32:02;;;;;;;0.10;0.10;;;22.80;99.90;;;;;;5071339;28;20056;-70
2023/01/14 10:34:39;;;;;;;0.10;0.10;;;22.80;99.90;;;;;;5058580;28;20583;-71
2023/01/14 10:37:09;;;;;;;4.18;3.83;;;22.80;99.90;;;;;;5052192;28;20048;-68
2023/01/14 10:39:36;;;;;;;0.20;0.20;;;22.80;99.90;;;;;;5051112;28;20036;-70
2023/01/14 10:42:03;;;;;;;0.30;0.30;;;22.70;99.90;;;;;;5051440;28;20029;-69
2023/01/14 10:44:34;;;;;;;0.30;0.30;;;22.80;99.90;;;;;;5056800;28;20032;-69
2023/01/14 10:47:08;;;;;;;1.25;1.25;;;22.70;99.90;;;;;;5071081;28;20035;-71
2023/01/14 10:49:43;;;;;;;0.20;0.20;;;22.60;99.90;;;;;;5053071;28;20065;-73
2023/01/14 10:52:31;;;;;;;0.20;0.20;;;22.50;99.90;;;;;;5051345;28;20546;-70
2023/01/14 10:55:15;;;;;;;0.20;0.20;;;22.40;99.90;;;;;;5050736;28;20036;-69
2023/01/14 10:58:06;;;;;;;3.25;3.03;;;22.50;99.90;;;;;;5056805;28;20058;-69
2023/01/14 11:00:34;;;;;;;0.20;0.20;;;22.40;99.90;;;;;;5061257;28;20024;-70
2023/01/14 11:03:02;;;;;;;1.83;1.73;;;22.40;99.90;;;;;;5050782;28;20036;-70
2023/01/14 11:05:37;;;;;;;0.20;0.20;;;22.30;99.90;;;;;;5050246;28;20029;-70
2023/01/14 11:08:20;;;;;;;0.10;0.10;;;22.30;99.90;;;;;;5050639;28;20032;-70
2023/01/14 11:10:57;;;;;;;0.20;0.20;;;22.30;99.90;;;;;;5051488;28;20099;-70
2023/01/14 11:13:29;;;;;;;0.68;0.68;;;22.20;99.90;;;;;;5049429;28;20048;-71
2023/01/14 11:15:55;;;;;;;0.20;0.20;;;22.20;99.90;;;;;;5050945;28;20604;-71
2023/01/14 11:18:25;;;;;;;0.65;0.65;;;22.30;99.90;;;;;;5051579;28;20112;-70
2023/01/14 11:21:15;;;;;;;4.57;3.03;;;22.30;99.90;;;;;;5059730;28;20025;-69
2023/01/14 11:23:55;;;;;;;6.60;3.08;;;22.30;99.90;;;;;;5050987;28;20068;-68
2023/01/14 11:26:25;;;;;;;0.20;0.20;;;22.40;99.90;;;;;;5050185;28;20150;-68
2023/01/14 11:28:52;;;;;;;0.90;0.90;;;22.30;99.90;;;;;;5051180;28;20482;-69
2023/01/14 11:31:32;;;;;;;0.20;0.20;;;22.30;99.90;;;;;;5051998;28;20021;-68
2023/01/14 11:33:58;;;;;;;0.30;0.30;;;22.30;99.90;;;;;;5053723;28;20040;-68
2023/01/14 11:36:27;;;;;;;0.45;0.45;;;22.30;99.90;;;;;;5056495;28;20021;-68
2023/01/14 11:38:58;;;;;;;0.15;0.15;;;22.30;99.90;;;;;;5061990;28;20032;-69
2023/01/14 11:41:36;;;;;;;0.20;0.20;;;22.40;99.90;;;;;;5064466;28;20021;-67
2023/01/14 11:44:04;;;;;;;0.10;0.10;;;22.40;99.90;;;;;;5069532;28;20027;-68
2023/01/14 11:46:33;;;;;;;0.20;0.20;;;22.40;99.90;;;;;;5067120;28;20485;-68
2023/01/14 11:49:16;;;;;;;0.10;0.10;;;22.40;99.90;;;;;;5065464;28;20017;-67
2023/01/14 11:51:59;;;;;;;0.20;0.20;;;22.40;99.90;;;;;;5067726;28;20028;-67
2023/01/14 11:54:38;;;;;;;7.18;3.47;;;22.30;99.90;;;;;;5066277;28;20017;-68
2023/01/14 11:57:15;;;;;;;0.10;0.10;;;22.30;99.90;;;;;;5053851;28;20108;-68
2023/01/14 11:59:42;;;;;;;0.10;0.10;;;22.30;99.90;;;;;;5057310;28;20108;-67
2023/01/14 12:02:23;;;;;;;1.08;1.05;;;22.30;99.90;;;;;;5064977;28;20042;-67
2023/01/14 12:05:04;;;;;;;0.20;0.20;;;22.40;99.90;;;;;;5073558;28;20029;-69
2023/01/14 12:07:43;;;;;;;0.13;0.13;;;22.40;99.90;;;;;;5073455;28;20028;-67
2023/01/14 12:10:30;;;;;;;0.20;0.20;;;22.50;99.90;;;;;;5056710;28;20493;-67
2023/01/14 12:19:18;;;;;;;0.20;0.20;;;22.50;99.90;;;;;;5053793;28;20104;-69
2023/01/14 12:21:53;;;;;;;1.15;1.08;;;22.60;99.90;;;;;;5053373;28;20021;-68
2023/01/14 12:24:51;;;;;;;0.20;0.20;;;22.60;99.90;;;;;;5053517;28;20040;-67
2023/01/14 12:27:45;;;;;;;0.20;0.20;;;22.70;99.90;;;;;;5053276;28;20040;-69
2023/01/14 12:30:36;;;;;;;0.17;0.17;;;22.60;99.90;;;;;;5053981;28;20029;-68
2023/01/14 12:33:19;;;;;;;0.20;0.20;;;22.70;99.90;;;;;;5058148;28;20425;-68
2023/01/14 12:36:02;;;;;;;0.20;0.20;;;22.60;99.90;;;;;;5063422;28;20031;-70
2023/01/14 12:47:12;;;;;;;0.20;0.20;;;22.60;99.90;;;;;;5069201;28;20044;-69
2023/01/14 12:49:39;;;;;;;0.20;0.20;;;22.70;99.90;;;;;;5071565;28;20029;-69
2023/01/14 12:52:07;;;;;;;0.20;0.20;;;22.70;99.90;;;;;;5061344;28;20021;-69
2023/01/14 12:54:35;;;;;;;0.20;0.20;;;22.60;99.90;;;;;;5060431;28;20028;-68
2023/01/14 12:57:03;;;;;;;0.20;0.20;;;22.70;99.90;;;;;;5066056;28;20028;-67
2023/01/14 12:59:38;;;;;;;0.88;0.82;;;22.70;99.90;;;;;;5072797;28;20107;-70
2023/01/14 13:02:16;;;;;;;0.30;0.30;;;22.70;99.90;;;;;;5073041;28;20056;-69
2023/01/14 13:04:58;;;;;;;0.20;0.20;;;22.70;99.90;;;;;;5072368;28;20531;-68
2023/01/14 13:07:29;;;;;;;0.20;0.20;;;22.60;99.90;;;;;;5060788;28;20045;-68
2023/01/14 13:09:58;;;;;;;0.20;0.20;;;22.60;99.90;;;;;;5063057;28;20036;-67
2023/01/14 13:12:26;;;;;;;1.77;1.65;;;22.60;99.90;;;;;;5054280;28;20025;-68
2023/01/14 13:14:55;;;;;;;0.20;0.20;;;22.40;99.90;;;;;;5052374;28;20052;-67
2023/01/14 13:17:36;;;;;;;0.20;0.20;;;22.40;99.90;;;;;;5064515;28;20436;-67
2023/01/14 13:20:20;;;;;;;0.40;0.40;;;22.40;99.90;;;;;;5052851;28;20474;-68
2023/01/14 13:22:50;;;;;;;0.20;0.20;;;22.40;99.90;;;;;;5067134;28;20281;-68
2023/01/14 13:25:40;;;;;;;2.20;1.48;;;22.40;99.90;;;;;;5067428;28;20037;-68
2023/01/14 13:28:12;;;;;;;0.20;0.20;;;22.30;99.90;;;;;;5069959;28;20114;-68
2023/01/14 13:30:59;;;;;;;0.20;0.20;;;22.30;99.90;;;;;;5072312;28;20017;-67
2023/01/14 13:33:29;;;;;;;0.30;0.30;;;22.30;99.90;;;;;;5067967;28;20028;-66
2023/01/14 13:36:10;;;;;;;2.67;2.47;;;22.20;99.90;;;;;;5065699;28;20059;-67
2023/01/14 13:38:39;;;;;;;1.70;1.60;;;22.20;99.90;;;;;;5059433;28;20025;-65
2023/01/14 13:41:06;;;;;;;1.85;1.75;;;22.10;99.90;;;;;;5065622;28;20052;-70
2023/01/14 13:43:38;;;;;;;0.20;0.20;;;22.10;99.90;;;;;;5070070;28;20028;-67
2023/01/14 13:46:05;;;;;;;;;;;22.00;99.90;;;;;;5063315;28;20568;-67